Time;durP1;ratioP1;P1;durP2;ratioP2;P2;SDS_P1;SDS_P2;PMS_P1;PMS_P2;Temp;Humidity;BMP_temperature;BMP_pressure;BME280_temperature;BME280_humidity;BME280_pressure;Samples;Min_cycle;Max_cycle;Signal;HPM_P1;HPM_P2
2022/01/15 00:01:38;;;;;;;11.97;10.67;;;;;;;;;;5027465;28;20202;-65
2022/01/15 00:04:10;;;;;;;11.70;10.50;;;;;;;;;;5035987;28;20205;-65
2022/01/15 00:06:39;;;;;;;11.03;9.93;;;;;;;;;;5022828;28;20296;-65
2022/01/15 00:09:09;;;;;;;10.57;9.53;;;;;;;;;;5027874;28;20207;-65
2022/01/15 00:11:38;;;;;;;11.83;10.57;;;;;;;;;;5022802;28;20226;-66
2022/01/15 00:14:24;;;;;;;11.30;10.10;;;;;;;;;;5023554;28;20311;-65
2022/01/15 00:17:03;;;;;;;11.40;10.27;;;;;;;;;;5024254;28;20201;-65
2022/01/15 00:19:42;;;;;;;12.50;10.33;;;;;;;;;;5033172;28;20351;-65
2022/01/15 00:22:17;;;;;;;11.17;10.07;;;;;;;;;;5025307;28;20187;-65
2022/01/15 00:24:48;;;;;;;10.67;9.57;;;;;;;;;;5009819;28;20222;-65
2022/01/15 00:27:18;;;;;;;11.33;10.10;;;;;;;;;;5006125;28;20644;-65
2022/01/15 00:29:51;;;;;;;10.63;9.53;;;;;;;;;;5032869;28;20191;-65
2022/01/15 00:32:34;;;;;;;10.93;9.37;;;;;;;;;;5026098;28;20280;-65
2022/01/15 00:35:26;;;;;;;10.87;9.77;;;;;;;;;;5027467;28;20199;-65
2022/01/15 00:38:02;;;;;;;11.53;10.33;;;;;;;;;;5026954;28;20194;-65
2022/01/15 00:40:36;;;;;;;11.77;10.27;;;;;;;;;;5025634;28;20215;-65
2022/01/15 00:43:21;;;;;;;11.60;10.40;;;;;;;;;;5024799;28;20280;-65
2022/01/15 00:45:55;;;;;;;11.47;10.27;;;;;;;;;;5011988;28;20522;-65
2022/01/15 00:48:25;;;;;;;11.57;10.20;;;;;;;;;;5024076;28;20203;-65
2022/01/15 00:51:00;;;;;;;12.23;10.20;;;;;;;;;;5025717;28;20650;-65
2022/01/15 00:53:29;;;;;;;12.03;10.73;;;;;;;;;;5012468;28;20226;-65
2022/01/15 00:56:02;;;;;;;12.80;11.13;;;;;;;;;;5013364;28;20308;-65
2022/01/15 00:58:35;;;;;;;12.43;11.13;;;;;;;;;;5033401;28;20205;-65
2022/01/15 01:01:06;;;;;;;12.03;10.60;;;;;;;;;;5023666;28;20776;-65
2022/01/15 01:03:37;;;;;;;12.53;11.07;;;;;;;;;;5023331;28;20582;-65
2022/01/15 01:06:09;;;;;;;12.83;11.33;;;;;;;;;;5030701;28;20218;-65
2022/01/15 01:08:39;;;;;;;12.27;10.30;;;;;;;;;;5025427;28;20203;-65
2022/01/15 01:11:16;;;;;;;13.03;10.87;;;;;;;;;;5023395;28;20223;-65
2022/01/15 01:22:57;;;;;;;14.07;11.87;;;;;;;;;;4974701;28;20883;-65
2022/01/15 01:25:38;;;;;;;15.77;12.10;;;;;;;;;;4977053;28;20227;-65
2022/01/15 01:28:14;;;;;;;14.27;11.43;;;;;;;;;;4980039;28;20294;-65
2022/01/15 01:30:52;;;;;;;14.83;11.77;;;;;;;;;;4967569;28;20228;-65
2022/01/15 01:33:38;;;;;;;15.67;11.97;;;;;;;;;;4979474;28;20260;-65
2022/01/15 01:36:39;;;;;;;16.47;12.50;;;;;;;;;;5006977;28;20265;-65
2022/01/15 01:39:17;;;;;;;14.60;11.30;;;;;;;;;;5010795;28;20214;-65
2022/01/15 01:45:09;;;;;;;13.63;11.47;;;;;;;;;;5006426;28;20196;-65
2022/01/15 01:47:43;;;;;;;20.13;13.10;;;;;;;;;;4999697;28;20715;-65
2022/01/15 01:50:25;;;;;;;16.33;12.10;;;;;;;;;;5002420;28;20204;-65
2022/01/15 01:52:55;;;;;;;17.63;13.87;;;;;;;;;;5004424;28;20193;-65
2022/01/15 01:55:26;;;;;;;14.70;11.70;;;;;;;;;;5009944;28;20191;-65
2022/01/15 01:58:01;;;;;;;16.57;13.00;;;;;;;;;;5013336;28;20204;-64
2022/01/15 02:00:33;;;;;;;16.77;12.27;;;;;;;;;;5007103;28;20286;-65
2022/01/15 02:03:05;;;;;;;16.20;12.07;;;;;;;;;;5008507;28;20517;-65
2022/01/15 02:05:34;;;;;;;18.87;14.53;;;;;;;;;;5011580;28;20283;-65
2022/01/15 02:08:04;;;;;;;17.70;13.97;;;;;;;;;;5007256;28;21288;-65
2022/01/15 02:10:33;;;;;;;17.70;13.47;;;;;;;;;;5009459;28;20195;-65
2022/01/15 02:13:10;;;;;;;17.60;13.43;;;;;;;;;;5007648;28;20257;-65
2022/01/15 02:15:43;;;;;;;15.63;12.60;;;;;;;;;;5013687;28;20195;-65
2022/01/15 02:18:16;;;;;;;15.77;12.40;;;;;;;;;;5013276;28;20227;-65
2022/01/15 02:23:32;;;;;;;16.57;12.80;;;;;;;;;;5029030;28;20221;-65
2022/01/15 02:23:53;;;;;;;16.90;13.10;;;;;;;;;;5033313;28;20209;-65
2022/01/15 02:26:23;;;;;;;16.37;12.57;;;;;;;;;;5012062;28;20215;-65
2022/01/15 02:29:01;;;;;;;16.20;13.03;;;;;;;;;;5028221;28;20207;-65
2022/01/15 02:31:33;;;;;;;16.27;13.17;;;;;;;;;;5023711;28;20261;-65
2022/01/15 02:34:04;;;;;;;15.33;12.03;;;;;;;;;;5029602;28;20219;-65
2022/01/15 02:36:34;;;;;;;15.37;13.13;;;;;;;;;;5023911;28;20215;-65
2022/01/15 02:39:08;;;;;;;16.87;12.23;;;;;;;;;;5008997;28;20196;-65
2022/01/15 02:41:41;;;;;;;15.50;12.70;;;;;;;;;;5027615;28;20529;-65
2022/01/15 02:44:21;;;;;;;17.10;13.53;;;;;;;;;;5011237;28;20198;-65
2022/01/15 02:49:26;;;;;;;15.77;11.90;;;;;;;;;;5024517;28;20657;-65
2022/01/15 02:52:00;;;;;;;15.37;12.60;;;;;;;;;;5028610;28;20712;-65
2022/01/15 02:54:30;;;;;;;15.80;12.70;;;;;;;;;;5032835;28;20218;-65
2022/01/15 02:57:04;;;;;;;17.47;13.67;;;;;;;;;;5027384;28;20199;-65
2022/01/15 02:59:34;;;;;;;15.77;12.77;;;;;;;;;;5032581;28;20226;-64
2022/01/15 03:02:02;;;;;;;16.60;12.80;;;;;;;;;;5028493;28;20226;-65
2022/01/15 03:04:33;;;;;;;15.57;12.60;;;;;;;;;;5024787;28;20211;-65
2022/01/15 03:07:06;;;;;;;18.27;12.97;;;;;;;;;;5034084;28;20198;-65
2022/01/15 03:09:36;;;;;;;15.03;12.50;;;;;;;;;;5025188;28;20215;-65
2022/01/15 03:12:05;;;;;;;16.67;12.50;;;;;;;;;;5023327;28;20241;-64
2022/01/15 03:14:32;;;;;;;15.90;13.27;;;;;;;;;;5013049;28;20798;-65
2022/01/15 03:17:01;;;;;;;15.53;13.23;;;;;;;;;;5030954;28;20228;-64
2022/01/15 03:19:43;;;;;;;16.30;12.63;;;;;;;;;;5024409;28;20257;-65
2022/01/15 03:22:11;;;;;;;14.80;12.33;;;;;;;;;;5029321;28;20199;-65
2022/01/15 03:24:40;;;;;;;15.33;12.03;;;;;;;;;;5026169;28;20215;-65
2022/01/15 03:27:12;;;;;;;16.60;12.67;;;;;;;;;;5029878;28;20199;-65
2022/01/15 03:29:41;;;;;;;15.03;12.20;;;;;;;;;;5026462;28;20195;-65
2022/01/15 03:32:13;;;;;;;15.00;11.53;;;;;;;;;;5038871;28;20284;-65
2022/01/15 03:34:43;;;;;;;15.90;11.70;;;;;;;;;;5026853;28;20656;-65
2022/01/15 03:37:15;;;;;;;14.10;11.17;;;;;;;;;;5017989;28;20219;-65
2022/01/15 03:39:47;;;;;;;13.83;11.50;;;;;;;;;;4993404;28;20268;-65
2022/01/15 03:42:19;;;;;;;16.40;11.90;;;;;;;;;;5004960;28;20203;-65
2022/01/15 03:44:51;;;;;;;14.67;11.80;;;;;;;;;;5026549;28;20206;-65
2022/01/15 03:47:24;;;;;;;13.90;11.13;;;;;;;;;;5008824;28;20250;-65
2022/01/15 03:49:55;;;;;;;15.03;11.47;;;;;;;;;;5028275;28;20195;-65
2022/01/15 03:52:24;;;;;;;14.37;11.43;;;;;;;;;;5026953;28;20214;-65
2022/01/15 03:54:53;;;;;;;12.30;11.00;;;;;;;;;;5015704;28;20253;-65
2022/01/15 03:57:25;;;;;;;16.33;12.13;;;;;;;;;;5029868;28;20405;-64
2022/01/15 03:59:52;;;;;;;15.83;11.77;;;;;;;;;;5014132;28;20206;-65
2022/01/15 04:02:22;;;;;;;13.30;11.03;;;;;;;;;;5026981;28;20245;-65
2022/01/15 04:04:50;;;;;;;14.23;11.87;;;;;;;;;;5029462;28;20999;-65
2022/01/15 04:07:19;;;;;;;15.17;11.23;;;;;;;;;;5021413;28;20227;-65
2022/01/15 04:09:50;;;;;;;13.43;11.00;;;;;;;;;;5027882;28;20270;-65
2022/01/15 04:12:19;;;;;;;15.40;11.63;;;;;;;;;;5007918;28;20807;-65
2022/01/15 04:14:51;;;;;;;14.80;11.17;;;;;;;;;;5028078;28;20352;-65
2022/01/15 04:17:22;;;;;;;14.13;11.27;;;;;;;;;;5021835;28;20207;-65
2022/01/15 04:19:51;;;;;;;13.53;11.23;;;;;;;;;;5012891;28;20210;-65
2022/01/15 04:22:21;;;;;;;12.90;10.40;;;;;;;;;;5006503;28;20262;-65
2022/01/15 04:24:53;;;;;;;13.93;11.43;;;;;;;;;;5009859;28;20207;-65
2022/01/15 04:27:23;;;;;;;13.57;11.03;;;;;;;;;;4985305;28;20215;-65
2022/01/15 04:29:51;;;;;;;15.27;11.63;;;;;;;;;;5014086;28;20207;-65
2022/01/15 04:32:22;;;;;;;14.07;11.50;;;;;;;;;;5003844;28;20207;-65
2022/01/15 04:34:51;;;;;;;15.20;11.43;;;;;;;;;;5007370;28;20199;-65
2022/01/15 04:37:23;;;;;;;14.33;11.50;;;;;;;;;;5002601;28;20219;-65
2022/01/15 04:39:54;;;;;;;15.27;11.80;;;;;;;;;;5005364;28;20195;-65
2022/01/15 04:42:25;;;;;;;13.40;11.00;;;;;;;;;;5005632;28;20199;-65
2022/01/15 04:44:54;;;;;;;14.13;11.50;;;;;;;;;;5015139;28;20191;-65
2022/01/15 04:47:23;;;;;;;13.67;11.47;;;;;;;;;;5002301;28;20222;-65
2022/01/15 04:49:55;;;;;;;13.43;10.97;;;;;;;;;;5006534;28;20234;-65
2022/01/15 04:52:23;;;;;;;14.93;11.40;;;;;;;;;;5005324;28;20226;-65
2022/01/15 04:54:53;;;;;;;13.97;10.73;;;;;;;;;;5014783;28;20206;-65
2022/01/15 04:57:22;;;;;;;14.53;10.47;;;;;;;;;;5006780;28;20194;-65
2022/01/15 04:59:53;;;;;;;12.90;10.37;;;;;;;;;;5002486;28;20258;-65
2022/01/15 05:02:22;;;;;;;12.23;10.57;;;;;;;;;;5011920;28;20217;-65
2022/01/15 05:04:52;;;;;;;13.10;10.83;;;;;;;;;;5011162;28;20677;-65
2022/01/15 05:07:24;;;;;;;14.60;11.20;;;;;;;;;;5006346;28;20225;-65
2022/01/15 05:09:56;;;;;;;13.53;10.20;;;;;;;;;;5005695;28;20210;-65
2022/01/15 05:14:56;;;;;;;15.97;11.17;;;;;;;;;;5006441;28;20195;-65
2022/01/15 05:17:26;;;;;;;13.63;10.87;;;;;;;;;;5002633;28;20203;-65
2022/01/15 05:19:55;;;;;;;11.67;9.33;;;;;;;;;;5027973;28;20202;-65
2022/01/15 05:22:28;;;;;;;14.73;11.07;;;;;;;;;;5027067;28;20290;-65
2022/01/15 05:25:00;;;;;;;12.90;9.80;;;;;;;;;;5001593;28;20211;-64
2022/01/15 05:27:38;;;;;;;14.57;9.73;;;;;;;;;;5024581;28;20202;-64
2022/01/15 05:30:08;;;;;;;12.43;9.53;;;;;;;;;;5023618;28;20195;-65
2022/01/15 05:32:44;;;;;;;12.73;10.47;;;;;;;;;;5012538;28;20225;-64
2022/01/15 05:35:14;;;;;;;12.83;9.27;;;;;;;;;;5024652;28;20241;-64
2022/01/15 05:37:41;;;;;;;15.50;10.93;;;;;;;;;;5037897;28;20212;-64
2022/01/15 05:40:09;;;;;;;11.53;9.73;;;;;;;;;;5031770;28;20203;-64
2022/01/15 05:42:42;;;;;;;12.93;9.80;;;;;;;;;;5035601;28;20198;-64
2022/01/15 05:45:09;;;;;;;12.87;9.70;;;;;;;;;;5027677;28;20209;-64
2022/01/15 05:47:39;;;;;;;12.73;10.60;;;;;;;;;;5026503;28;20215;-64
2022/01/15 05:50:08;;;;;;;13.60;10.37;;;;;;;;;;5031962;28;20199;-64
2022/01/15 05:52:42;;;;;;;14.43;9.70;;;;;;;;;;5020350;28;20211;-64
2022/01/15 05:55:12;;;;;;;13.67;10.17;;;;;;;;;;5026595;28;20231;-64
2022/01/15 05:57:42;;;;;;;13.27;10.43;;;;;;;;;;5017916;28;20632;-65
2022/01/15 06:00:09;;;;;;;13.33;10.07;;;;;;;;;;5012820;28;20214;-64
2022/01/15 06:02:38;;;;;;;12.53;10.73;;;;;;;;;;5033975;28;20210;-65
2022/01/15 06:05:06;;;;;;;13.63;10.60;;;;;;;;;;5028876;28;20241;-64
2022/01/15 06:07:35;;;;;;;13.33;10.43;;;;;;;;;;5033318;28;20287;-65
2022/01/15 06:10:04;;;;;;;12.23;9.37;;;;;;;;;;5027514;28;20206;-65
2022/01/15 06:12:45;;;;;;;11.57;9.47;;;;;;;;;;5029042;28;20230;-65
2022/01/15 06:15:15;;;;;;;11.90;9.63;;;;;;;;;;5026642;28;20274;-65
2022/01/15 06:17:48;;;;;;;13.27;10.53;;;;;;;;;;5027544;28;20231;-65
2022/01/15 06:20:19;;;;;;;11.53;9.47;;;;;;;;;;5004473;28;20625;-65
2022/01/15 06:22:52;;;;;;;13.67;10.23;;;;;;;;;;4995246;28;20200;-65
2022/01/15 06:25:20;;;;;;;10.90;8.67;;;;;;;;;;5000655;28;20208;-65
2022/01/15 06:27:49;;;;;;;13.47;9.37;;;;;;;;;;5006666;28;21670;-65
2022/01/15 06:30:26;;;;;;;13.33;10.20;;;;;;;;;;5007079;28;20184;-65
2022/01/15 06:32:58;;;;;;;9.23;7.87;;;;;;;;;;5002581;28;20545;-65
2022/01/15 06:35:28;;;;;;;10.17;8.30;;;;;;;;;;5004770;28;20590;-65
2022/01/15 06:37:57;;;;;;;10.77;8.60;;;;;;;;;;5006048;28;20204;-65
2022/01/15 06:40:27;;;;;;;11.33;8.93;;;;;;;;;;5008847;28;20247;-65
2022/01/15 06:42:59;;;;;;;9.20;8.27;;;;;;;;;;4999821;28;20278;-65
2022/01/15 06:45:32;;;;;;;9.83;8.00;;;;;;;;;;5012392;28;20211;-65
2022/01/15 06:48:02;;;;;;;10.23;7.93;;;;;;;;;;5005292;28;20218;-64
2022/01/15 06:50:37;;;;;;;9.03;7.30;;;;;;;;;;5008248;28;20218;-65
2022/01/15 06:53:07;;;;;;;8.80;7.67;;;;;;;;;;5004490;28;20235;-65
2022/01/15 06:55:35;;;;;;;9.63;7.27;;;;;;;;;;5007304;28;20254;-65
2022/01/15 06:58:07;;;;;;;8.90;7.10;;;;;;;;;;5007530;28;20192;-65
2022/01/15 07:00:37;;;;;;;8.63;7.43;;;;;;;;;;5011089;28;20224;-65
2022/01/15 07:03:10;;;;;;;9.80;7.03;;;;;;;;;;5008362;28;20351;-65
2022/01/15 07:05:42;;;;;;;7.80;7.00;;;;;;;;;;5020813;28;20314;-65
2022/01/15 07:08:13;;;;;;;8.47;6.77;;;;;;;;;;5009064;28;20211;-65
2022/01/15 07:10:43;;;;;;;8.90;7.40;;;;;;;;;;5009343;28;20273;-65
2022/01/15 07:13:14;;;;;;;8.17;5.60;;;;;;;;;;5005432;28;20245;-66
2022/01/15 07:15:44;;;;;;;6.83;6.13;;;;;;;;;;5007493;28;20195;-65
2022/01/15 07:18:17;;;;;;;5.97;5.37;;;;;;;;;;5012101;28;20235;-65
2022/01/15 07:20:51;;;;;;;6.53;5.43;;;;;;;;;;5026024;28;20199;-65
2022/01/15 07:23:18;;;;;;;6.27;5.40;;;;;;;;;;5018805;28;20211;-65
2022/01/15 07:26:08;;;;;;;6.53;5.10;;;;;;;;;;5018856;28;20198;-64
2022/01/15 07:28:38;;;;;;;7.33;5.70;;;;;;;;;;5025896;28;20214;-65
2022/01/15 07:31:10;;;;;;;6.33;5.73;;;;;;;;;;5038310;28;20250;-65
2022/01/15 07:33:53;;;;;;;6.50;5.80;;;;;;;;;;5028086;28;20350;-64
2022/01/15 07:36:21;;;;;;;6.23;5.23;;;;;;;;;;5027091;28;20294;-65
2022/01/15 07:38:51;;;;;;;5.83;5.00;;;;;;;;;;5036874;28;20221;-65
2022/01/15 07:41:34;;;;;;;5.90;4.93;;;;;;;;;;5026965;28;20195;-64
2022/01/15 07:44:17;;;;;;;7.20;5.30;;;;;;;;;;5031091;28;20234;-64
2022/01/15 07:46:49;;;;;;;5.23;4.73;;;;;;;;;;5025923;28;20198;-64
2022/01/15 07:49:22;;;;;;;5.97;5.20;;;;;;;;;;5022724;28;20215;-64
2022/01/15 07:51:52;;;;;;;5.77;4.97;;;;;;;;;;5026170;28;20222;-64
2022/01/15 07:54:19;;;;;;;5.90;4.90;;;;;;;;;;5053811;28;20202;-64
2022/01/15 07:56:50;;;;;;;5.30;4.80;;;;;;;;;;5020459;28;20261;-64
2022/01/15 07:59:17;;;;;;;5.27;4.70;;;;;;;;;;5021807;28;20183;-64
2022/01/15 08:01:50;;;;;;;5.03;4.53;;;;;;;;;;5026753;28;20179;-64
2022/01/15 08:04:22;;;;;;;4.43;4.03;;;;;;;;;;5035346;28;20645;-64
2022/01/15 08:06:56;;;;;;;5.70;5.17;;;;;;;;;;5026363;28;20188;-64
2022/01/15 08:09:26;;;;;;;5.47;4.90;;;;;;;;;;5030690;28;20211;-64
2022/01/15 08:11:56;;;;;;;5.10;4.70;;;;;;;;;;5030218;28;20267;-66
2022/01/15 08:14:28;;;;;;;5.23;4.70;;;;;;;;;;5038732;28;20593;-66
2022/01/15 08:17:00;;;;;;;5.83;5.23;;;;;;;;;;5028135;28;20189;-65
2022/01/15 08:19:32;;;;;;;6.13;4.90;;;;;;;;;;5004857;28;20238;-64
2022/01/15 08:22:04;;;;;;;5.40;4.90;;;;;;;;;;5008862;28;20253;-64
2022/01/15 08:24:40;;;;;;;5.03;4.53;;;;;;;;;;5003299;28;20218;-64
2022/01/15 08:27:14;;;;;;;5.20;4.70;;;;;;;;;;5003462;28;20192;-64
2022/01/15 08:29:43;;;;;;;5.20;4.70;;;;;;;;;;5002252;28;20310;-64
2022/01/15 08:32:14;;;;;;;4.73;4.23;;;;;;;;;;5002917;28;20192;-65
2022/01/15 08:34:46;;;;;;;5.50;4.93;;;;;;;;;;5004458;28;20277;-66
2022/01/15 08:37:18;;;;;;;5.93;5.33;;;;;;;;;;4999015;28;20204;-64
2022/01/15 08:39:49;;;;;;;5.07;4.57;;;;;;;;;;5003565;28;20287;-64
2022/01/15 08:42:19;;;;;;;5.70;5.13;;;;;;;;;;5006786;28;20257;-66
2022/01/15 08:44:52;;;;;;;5.47;4.90;;;;;;;;;;5006263;28;20578;-65
2022/01/15 08:47:24;;;;;;;5.80;5.30;;;;;;;;;;5000451;28;20191;-65
2022/01/15 08:49:56;;;;;;;5.87;5.27;;;;;;;;;;5004924;28;20198;-66
2022/01/15 08:52:28;;;;;;;5.73;5.23;;;;;;;;;;5005227;28;20227;-66
2022/01/15 08:54:57;;;;;;;5.90;5.40;;;;;;;;;;5005046;28;20869;-65
2022/01/15 08:57:28;;;;;;;6.47;5.87;;;;;;;;;;4996235;28;20206;-65
2022/01/15 08:59:58;;;;;;;5.67;5.17;;;;;;;;;;4988545;28;20684;-66
2022/01/15 09:02:29;;;;;;;6.13;5.53;;;;;;;;;;5005582;28;20223;-64
2022/01/15 09:04:59;;;;;;;6.57;5.97;;;;;;;;;;5004044;28;20200;-64
2022/01/15 09:07:42;;;;;;;6.77;6.00;;;;;;;;;;5006029;28;20246;-64
2022/01/15 09:10:26;;;;;;;5.70;5.17;;;;;;;;;;4998887;28;20210;-65
2022/01/15 09:12:59;;;;;;;6.40;5.80;;;;;;;;;;5005489;28;20227;-66
2022/01/15 09:15:30;;;;;;;6.57;5.87;;;;;;;;;;4991907;28;20257;-64
2022/01/15 09:18:01;;;;;;;6.20;5.60;;;;;;;;;;4995984;28;20257;-64
2022/01/15 09:20:32;;;;;;;7.13;6.43;;;;;;;;;;5028826;28;20748;-65
2022/01/15 09:23:03;;;;;;;6.30;5.70;;;;;;;;;;5028830;28;20268;-64
2022/01/15 09:25:50;;;;;;;5.90;5.30;;;;;;;;;;5029665;28;20279;-64
2022/01/15 09:31:07;;;;;;;5.77;5.20;;;;;;;;;;5036077;28;20210;-65
2022/01/15 09:33:37;;;;;;;6.20;5.60;;;;;;;;;;5027765;28;20215;-65
2022/01/15 09:36:08;;;;;;;6.47;5.90;;;;;;;;;;5027851;28;20206;-64
2022/01/15 09:38:40;;;;;;;5.90;5.30;;;;;;;;;;5011019;28;20379;-64
2022/01/15 09:41:11;;;;;;;5.80;5.13;;;;;;;;;;5018938;28;20214;-65
2022/01/15 09:43:42;;;;;;;6.40;5.80;;;;;;;;;;5012405;28;21062;-65
2022/01/15 09:46:22;;;;;;;5.83;5.23;;;;;;;;;;5033146;28;20207;-65
2022/01/15 09:48:52;;;;;;;6.00;5.40;;;;;;;;;;5024177;28;20678;-65
2022/01/15 09:51:24;;;;;;;6.30;5.70;;;;;;;;;;5024133;28;20276;-66
2022/01/15 09:53:55;;;;;;;7.30;6.47;;;;;;;;;;5006449;28;20763;-67
2022/01/15 09:56:26;;;;;;;5.87;5.27;;;;;;;;;;5018724;28;20203;-67
2022/01/15 09:59:08;;;;;;;5.97;5.37;;;;;;;;;;5014706;28;20214;-67
2022/01/15 10:01:36;;;;;;;6.53;5.60;;;;;;;;;;5023300;28;20207;-69
2022/01/15 10:04:10;;;;;;;6.53;5.57;;;;;;;;;;5028340;28;20257;-69
2022/01/15 10:06:59;;;;;;;6.47;5.83;;;;;;;;;;5012229;28;20199;-67
2022/01/15 10:09:43;;;;;;;7.40;5.93;;;;;;;;;;5021523;28;20223;-67
2022/01/15 10:12:24;;;;;;;7.80;5.63;;;;;;;;;;5008408;28;20214;-67
2022/01/15 10:14:57;;;;;;;6.80;6.10;;;;;;;;;;5029084;28;20210;-68
2022/01/15 10:17:35;;;;;;;6.73;6.03;;;;;;;;;;5024651;28;20179;-67
2022/01/15 10:20:10;;;;;;;6.87;6.17;;;;;;;;;;5027781;28;20255;-68
2022/01/15 10:22:47;;;;;;;7.60;6.47;;;;;;;;;;5029262;28;20191;-69
2022/01/15 10:25:24;;;;;;;6.97;6.27;;;;;;;;;;5022040;28;20246;-70
2022/01/15 10:27:54;;;;;;;7.80;6.43;;;;;;;;;;5026842;28;20191;-71
2022/01/15 10:30:27;;;;;;;10.10;6.37;;;;;;;;;;5010346;28;20210;-71
2022/01/15 10:33:00;;;;;;;6.93;6.23;;;;;;;;;;5027574;28;20214;-70
2022/01/15 10:35:34;;;;;;;9.00;6.43;;;;;;;;;;5019777;28;20280;-71
2022/01/15 10:38:29;;;;;;;9.07;7.00;;;;;;;;;;5028378;28;20203;-70
2022/01/15 10:41:00;;;;;;;9.00;6.57;;;;;;;;;;5025231;28;20199;-66
2022/01/15 10:43:33;;;;;;;11.53;6.77;;;;;;;;;;5025080;28;20191;-66
2022/01/15 10:46:05;;;;;;;11.23;7.30;;;;;;;;;;5026239;28;20265;-67
2022/01/15 10:48:39;;;;;;;9.77;6.77;;;;;;;;;;5024060;28;20231;-68
2022/01/15 10:51:24;;;;;;;8.40;6.43;;;;;;;;;;5023292;28;20194;-70
2022/01/15 10:54:02;;;;;;;9.30;7.17;;;;;;;;;;5008016;28;20555;-70
2022/01/15 10:56:32;;;;;;;8.87;7.20;;;;;;;;;;5013144;28;20233;-70
2022/01/15 10:59:10;;;;;;;10.60;6.70;;;;;;;;;;5026997;28;20203;-71
2022/01/15 11:01:41;;;;;;;8.87;7.17;;;;;;;;;;5025827;28;20257;-70
2022/01/15 11:04:12;;;;;;;10.53;7.07;;;;;;;;;;5025004;28;20766;-70
2022/01/15 11:06:41;;;;;;;9.33;6.90;;;;;;;;;;5029878;28;20698;-67
2022/01/15 11:09:13;;;;;;;8.60;7.10;;;;;;;;;;5023873;28;20226;-67
2022/01/15 11:11:59;;;;;;;7.20;6.50;;;;;;;;;;5026671;28;20226;-70
2022/01/15 11:14:43;;;;;;;9.93;7.53;;;;;;;;;;5025184;28;20405;-70
2022/01/15 11:17:27;;;;;;;11.70;7.83;;;;;;;;;;5038401;28;20210;-71
2022/01/15 11:19:58;;;;;;;12.87;7.87;;;;;;;;;;5021219;28;20234;-70
2022/01/15 11:22:28;;;;;;;8.77;7.30;;;;;;;;;;5010182;28;20257;-68
2022/01/15 11:25:17;;;;;;;13.53;7.57;;;;;;;;;;5016897;28;20208;-68
2022/01/15 11:27:48;;;;;;;9.33;7.83;;;;;;;;;;5021285;28;20564;-68
2022/01/15 11:30:21;;;;;;;10.73;8.03;;;;;;;;;;5012269;28;20203;-67
2022/01/15 11:32:51;;;;;;;9.77;7.63;;;;;;;;;;5013001;28;20198;-67
2022/01/15 11:35:35;;;;;;;9.47;7.43;;;;;;;;;;5007411;28;20889;-71
2022/01/15 11:38:34;;;;;;;8.50;7.60;;;;;;;;;;5020499;28;20207;-71
2022/01/15 11:41:28;;;;;;;8.27;7.33;;;;;;;;;;5005629;28;20211;-68
2022/01/15 11:43:59;;;;;;;11.00;7.53;;;;;;;;;;5021555;28;20215;-68
2022/01/15 11:46:47;;;;;;;9.23;7.47;;;;;;;;;;5019823;28;20195;-70
2022/01/15 11:49:29;;;;;;;9.33;7.70;;;;;;;;;;5010429;28;20219;-70
2022/01/15 11:52:11;;;;;;;10.83;8.80;;;;;;;;;;5015792;28;20207;-70
2022/01/15 11:55:06;;;;;;;10.30;8.43;;;;;;;;;;5022672;28;20253;-70
2022/01/15 11:57:58;;;;;;;10.70;7.70;;;;;;;;;;5012208;28;20837;-71
2022/01/15 12:00:43;;;;;;;10.37;8.87;;;;;;;;;;5022753;28;20230;-70
2022/01/15 12:03:15;;;;;;;9.93;8.03;;;;;;;;;;5021577;28;20203;-71
2022/01/15 12:05:49;;;;;;;9.10;7.67;;;;;;;;;;5027381;28;20217;-71
2022/01/15 12:08:30;;;;;;;9.47;8.23;;;;;;;;;;5023597;28;20846;-71
2022/01/15 12:11:10;;;;;;;9.93;7.73;;;;;;;;;;5006200;28;20214;-70
2022/01/15 12:13:48;;;;;;;9.33;8.37;;;;;;;;;;5023835;28;20628;-70
2022/01/15 12:16:36;;;;;;;8.50;7.60;;;;;;;;;;5017963;28;20195;-71
2022/01/15 12:19:04;;;;;;;8.07;7.27;;;;;;;;;;5007802;28;20300;-71
2022/01/15 12:21:54;;;;;;;8.83;7.83;;;;;;;;;;5026769;28;20210;-71
2022/01/15 12:24:40;;;;;;;10.17;9.17;;;;;;;;;;5020397;28;20826;-71
2022/01/15 12:27:12;;;;;;;9.93;8.93;;;;;;;;;;5010094;28;20207;-71
2022/01/15 12:29:45;;;;;;;9.90;8.60;;;;;;;;;;5011259;28;20797;-71
2022/01/15 12:32:40;;;;;;;9.43;8.20;;;;;;;;;;5019720;28;20198;-68
2022/01/15 12:35:16;;;;;;;9.33;8.03;;;;;;;;;;5007261;28;20560;-68
2022/01/15 12:38:05;;;;;;;11.40;8.87;;;;;;;;;;5003209;28;20265;-66
2022/01/15 12:40:57;;;;;;;12.10;8.67;;;;;;;;;;5025103;28;20218;-69
2022/01/15 12:43:37;;;;;;;15.43;9.07;;;;;;;;;;5018907;28;20359;-69
2022/01/15 12:46:17;;;;;;;10.43;7.97;;;;;;;;;;5021901;28;20210;-69
2022/01/15 12:48:50;;;;;;;12.37;8.37;;;;;;;;;;5004045;28;20246;-69
2022/01/15 12:51:41;;;;;;;11.70;8.27;;;;;;;;;;5023602;28;20210;-69
2022/01/15 12:54:13;;;;;;;9.53;8.53;;;;;;;;;;5038513;28;20319;-69
2022/01/15 12:56:41;;;;;;;11.03;8.10;;;;;;;;;;5010628;28;20199;-69
2022/01/15 12:59:15;;;;;;;12.87;8.07;;;;;;;;;;5016043;28;20202;-69
2022/01/15 13:01:49;;;;;;;8.53;7.67;;;;;;;;;;5023473;28;20660;-69
2022/01/15 13:04:26;;;;;;;8.80;7.77;;;;;;;;;;5009318;28;20213;-70
2022/01/15 13:07:03;;;;;;;8.50;7.60;;;;;;;;;;5022459;28;20207;-70
2022/01/15 13:09:45;;;;;;;8.67;7.77;;;;;;;;;;5014550;28;20210;-70
2022/01/15 13:12:15;;;;;;;8.70;7.83;;;;;;;;;;5021053;28;20285;-69
2022/01/15 13:14:44;;;;;;;8.30;7.47;;;;;;;;;;5024624;28;20210;-69
2022/01/15 13:17:25;;;;;;;12.17;7.90;;;;;;;;;;5022642;28;20678;-69
2022/01/15 13:20:27;;;;;;;8.93;8.03;;;;;;;;;;5022682;28;20243;-69
2022/01/15 13:22:59;;;;;;;7.90;7.10;;;;;;;;;;5023531;28;20191;-70
2022/01/15 13:25:32;;;;;;;8.03;7.27;;;;;;;;;;5007076;28;20221;-69
2022/01/15 13:28:02;;;;;;;9.07;7.77;;;;;;;;;;5031294;28;20191;-69
2022/01/15 13:30:33;;;;;;;9.13;6.70;;;;;;;;;;5024664;28;20225;-70
2022/01/15 13:33:10;;;;;;;8.67;7.77;;;;;;;;;;5015204;28;20225;-70
2022/01/15 13:35:48;;;;;;;7.57;6.87;;;;;;;;;;5019300;28;20199;-69
2022/01/15 13:38:18;;;;;;;7.57;6.77;;;;;;;;;;5033475;28;20202;-69
2022/01/15 13:40:57;;;;;;;7.93;7.13;;;;;;;;;;5022918;28;20223;-69
2022/01/15 13:43:34;;;;;;;7.20;6.50;;;;;;;;;;5032181;28;20198;-69
2022/01/15 13:46:16;;;;;;;7.83;7.03;;;;;;;;;;5022816;28;20219;-69
2022/01/15 13:48:54;;;;;;;9.33;7.17;;;;;;;;;;5021332;28;20210;-69
2022/01/15 13:54:14;;;;;;;7.50;6.67;;;;;;;;;;5027222;28;20215;-69
2022/01/15 13:56:52;;;;;;;7.67;6.83;;;;;;;;;;5014506;28;20210;-69
2022/01/15 13:59:23;;;;;;;8.60;7.13;;;;;;;;;;5027117;28;20217;-69
2022/01/15 14:01:56;;;;;;;7.23;6.53;;;;;;;;;;5025951;28;20241;-70
2022/01/15 14:04:30;;;;;;;7.30;6.53;;;;;;;;;;5022989;28;20199;-71
2022/01/15 14:07:14;;;;;;;8.10;7.03;;;;;;;;;;5025460;28;20341;-69
2022/01/15 14:09:42;;;;;;;8.52;7.72;;;;;;;;;;5002413;28;20444;-69
2022/01/15 14:12:17;;;;;;;8.23;7.00;;;;;;;;;;5027292;28;20273;-68
2022/01/15 14:14:59;;;;;;;8.27;6.97;;;;;;;;;;5023295;28;20226;-68
2022/01/15 14:17:34;;;;;;;10.23;7.83;;;;;;;;;;5022010;28;20206;-66
2022/01/15 14:20:38;;;;;;;10.97;8.17;;;;;;;;;;5023780;28;20249;-70
2022/01/15 14:23:17;;;;;;;8.73;7.77;;;;;;;;;;5029833;28;20249;-66
2022/01/15 14:25:51;;;;;;;11.63;9.30;;;;;;;;;;5024278;28;20610;-69
2022/01/15 14:28:23;;;;;;;11.40;8.57;;;;;;;;;;5026642;28;20211;-67
2022/01/15 14:30:57;;;;;;;15.90;9.17;;;;;;;;;;5019613;28;20217;-66
2022/01/15 14:33:30;;;;;;;10.20;8.17;;;;;;;;;;5023420;28;20222;-67
2022/01/15 14:36:03;;;;;;;9.33;8.10;;;;;;;;;;5026132;28;20215;-68
2022/01/15 14:38:36;;;;;;;8.90;7.93;;;;;;;;;;5021064;28;20211;-68
2022/01/15 14:41:09;;;;;;;9.90;8.13;;;;;;;;;;5027776;28;20696;-66
2022/01/15 14:43:58;;;;;;;10.27;7.70;;;;;;;;;;5009654;28;20210;-66
2022/01/15 14:46:29;;;;;;;9.73;7.57;;;;;;;;;;5024288;28;20207;-64
2022/01/15 14:49:03;;;;;;;8.23;7.43;;;;;;;;;;5024818;28;20301;-67
2022/01/15 14:51:34;;;;;;;9.93;7.53;;;;;;;;;;5008858;28;20248;-65
2022/01/15 14:54:07;;;;;;;8.83;7.93;;;;;;;;;;5033557;28;20569;-64
2022/01/15 14:56:42;;;;;;;8.37;7.50;;;;;;;;;;5026726;28;20202;-66
2022/01/15 14:59:14;;;;;;;9.83;7.53;;;;;;;;;;5017895;28;20191;-66
2022/01/15 15:01:48;;;;;;;9.60;8.07;;;;;;;;;;5028250;28;20215;-66
2022/01/15 15:04:19;;;;;;;8.17;7.37;;;;;;;;;;5032316;28;20638;-66
2022/01/15 15:06:52;;;;;;;8.87;7.97;;;;;;;;;;5012881;28;20195;-64
2022/01/15 15:09:22;;;;;;;9.00;8.10;;;;;;;;;;5024328;28;20706;-64
2022/01/15 15:11:53;;;;;;;12.00;8.50;;;;;;;;;;5017310;28;20668;-64
2022/01/15 15:14:31;;;;;;;12.03;7.50;;;;;;;;;;5027235;28;20207;-64
2022/01/15 15:17:00;;;;;;;10.83;8.47;;;;;;;;;;5028033;28;20214;-65
2022/01/15 15:19:30;;;;;;;10.80;9.00;;;;;;;;;;5012051;28;20572;-66
2022/01/15 15:22:01;;;;;;;9.80;7.80;;;;;;;;;;5007567;28;20672;-64
2022/01/15 15:24:34;;;;;;;11.93;8.23;;;;;;;;;;5002204;28;20673;-65
2022/01/15 15:27:10;;;;;;;12.43;8.20;;;;;;;;;;5023581;28;20203;-65
2022/01/15 15:29:42;;;;;;;11.70;8.20;;;;;;;;;;5003950;28;20208;-65
2022/01/15 15:32:13;;;;;;;13.40;8.53;;;;;;;;;;5014709;28;20748;-64
2022/01/15 15:34:46;;;;;;;13.83;8.83;;;;;;;;;;5018347;28;20757;-65